createdAt,value
2024-03-12T00:00:43.079Z,100585.78
2024-03-12T00:03:13.270Z,100579.88
2024-03-12T00:05:42.694Z,100581.63
2024-03-12T00:08:11.549Z,100573.84
2024-03-12T00:10:40.448Z,100579.16
2024-03-12T00:13:11.435Z,100580.03
2024-03-12T00:15:40.297Z,100581.69
2024-03-12T00:18:09.450Z,100581.63
2024-03-12T00:20:40.964Z,100579.03
2024-03-12T00:23:09.681Z,100566.94
2024-03-12T00:25:38.868Z,100570.66
2024-03-12T00:28:10.525Z,100569.22
2024-03-12T00:30:42.951Z,100566.38
2024-03-12T00:33:24.043Z,100576.47
2024-03-12T00:35:53.054Z,100580.75
2024-03-12T00:38:21.929Z,100570.06
2024-03-12T00:40:53.095Z,100544.34
2024-03-12T00:43:22.711Z,100566.88
2024-03-12T00:45:51.571Z,100579.03
2024-03-12T00:48:20.564Z,100568.72
2024-03-12T00:50:50.017Z,100572.19
2024-03-12T00:53:19.406Z,100558.94
2024-03-12T00:55:49.215Z,100571.03
2024-03-12T00:58:22.322Z,100571.81
2024-03-12T01:00:53.933Z,100577.56
2024-03-12T01:03:25.909Z,100568.81
2024-03-12T01:06:07.644Z,100581.78
2024-03-12T01:08:36.628Z,100562.69
2024-03-12T01:11:05.541Z,100565.09
2024-03-12T01:13:35.376Z,100557.16
2024-03-12T01:16:04.501Z,100571.69
2024-03-12T01:18:33.737Z,100560.31
2024-03-12T01:21:02.398Z,100513.44
2024-03-12T01:23:31.220Z,100545.63
2024-03-12T01:26:00.472Z,100548.97
2024-03-12T01:28:29.523Z,100551.56
2024-03-12T01:30:58.366Z,100508.78
2024-03-12T01:33:29.473Z,100549.22
2024-03-12T01:36:07.464Z,100544.75
2024-03-12T01:38:36.787Z,100532.94
2024-03-12T01:41:07.460Z,100526.44
2024-03-12T01:43:37.519Z,100544.16
2024-03-12T01:46:09.015Z,100545.41
2024-03-12T01:48:50.901Z,100536.19
2024-03-12T01:51:19.526Z,100522.31
2024-03-12T01:53:49.860Z,100535.38
2024-03-12T01:56:18.974Z,100548.63
2024-03-12T01:58:47.822Z,100542.22
2024-03-12T02:01:17.909Z,100541.03
2024-03-12T02:03:53.768Z,100537.44
2024-03-12T02:06:26.420Z,100544.25
2024-03-12T02:08:55.795Z,100521.88
2024-03-12T02:11:24.625Z,100546.78
2024-03-12T02:13:53.387Z,100535.53
2024-03-12T02:16:22.273Z,100536.31
2024-03-12T02:18:50.944Z,100541.63
2024-03-12T02:21:19.804Z,100539.69
2024-03-12T02:23:48.564Z,100535.81
2024-03-12T02:26:17.258Z,100553.56
2024-03-12T02:28:46.079Z,100546.28
2024-03-12T02:31:15.221Z,100531.03
2024-03-12T02:33:44.213Z,100528.53
2024-03-12T02:36:13.793Z,100536.34
2024-03-12T02:38:42.744Z,100536.56
2024-03-12T02:41:12.187Z,100543.38
2024-03-12T02:43:41.336Z,100545.50
2024-03-12T02:46:27.864Z,100538.09
2024-03-12T02:48:56.656Z,100551.25
2024-03-12T02:51:25.676Z,100561.06
2024-03-12T02:53:54.394Z,100555.38
2024-03-12T02:56:23.004Z,100549.16
2024-03-12T02:58:51.823Z,100546.25
2024-03-12T03:01:20.726Z,100542.59
2024-03-12T03:03:49.674Z,100554.28
2024-03-12T03:06:19.203Z,100558.56
2024-03-12T03:08:48.236Z,100547.28
2024-03-12T03:11:16.835Z,100545.75
2024-03-12T03:13:46.122Z,100562.47
2024-03-12T03:16:27.151Z,100546.75
2024-03-12T03:18:57.186Z,100560.41
2024-03-12T03:21:26.631Z,100551.06
2024-03-12T03:23:55.486Z,100559.16
2024-03-12T03:26:24.255Z,100561.25
2024-03-12T03:28:53.102Z,100517.22
2024-03-12T03:31:21.643Z,100553.88
2024-03-12T03:33:50.478Z,100551.03
2024-03-12T03:36:19.322Z,100567.13
2024-03-12T03:38:48.162Z,100560.94
2024-03-12T03:41:17.179Z,100532.03
2024-03-12T03:43:46.472Z,100577.16
2024-03-12T03:46:15.420Z,100567.78
2024-03-12T03:48:44.105Z,100577.16
2024-03-12T03:51:12.746Z,100577.56
2024-03-12T03:53:41.943Z,100564.44
2024-03-12T03:56:17.425Z,100563.78
2024-03-12T03:59:03.114Z,100573.00
2024-03-12T04:01:32.192Z,100560.69
2024-03-12T04:04:12.845Z,100585.50
2024-03-12T04:06:45.779Z,100584.31
2024-03-12T04:09:14.430Z,100587.09
2024-03-12T04:11:45.794Z,100587.75
2024-03-12T04:14:15.122Z,100577.47
2024-03-12T04:16:43.925Z,100551.41
2024-03-12T04:19:12.496Z,100566.19
2024-03-12T04:21:41.938Z,100565.47
2024-03-12T04:24:12.736Z,100572.31
2024-03-12T04:26:42.195Z,100575.97
2024-03-12T04:29:12.333Z,100583.34
2024-03-12T04:31:41.683Z,100571.19
2024-03-12T04:34:23.418Z,100562.16
2024-03-12T04:36:52.770Z,100564.28
2024-03-12T04:39:41.834Z,100557.00
2024-03-12T04:42:11.136Z,100546.66
2024-03-12T04:44:39.820Z,100560.06
2024-03-12T04:47:21.178Z,100568.09
2024-03-12T04:49:50.239Z,100576.03
2024-03-12T04:52:19.040Z,100558.47
2024-03-12T04:54:48.482Z,100550.22
2024-03-12T04:57:17.404Z,100541.81
2024-03-12T04:59:46.567Z,100554.31
2024-03-12T05:02:17.667Z,100545.78
2024-03-12T05:04:46.504Z,100546.00
2024-03-12T05:07:15.141Z,100547.94
2024-03-12T05:09:44.823Z,100552.00
2024-03-12T05:12:13.434Z,100534.38
2024-03-12T05:14:42.283Z,100546.19
2024-03-12T05:17:11.246Z,100550.81
2024-03-12T05:19:42.735Z,100535.97
2024-03-12T05:22:11.441Z,100550.72
2024-03-12T05:24:40.304Z,100537.84
2024-03-12T05:27:09.129Z,100549.84
2024-03-12T05:29:45.301Z,100547.97
2024-03-12T05:32:19.715Z,100542.53
2024-03-12T05:34:54.576Z,100547.38
2024-03-12T05:37:42.734Z,100539.75
2024-03-12T05:40:20.767Z,100544.19
2024-03-12T05:43:07.968Z,100533.19
2024-03-12T05:45:55.051Z,100541.25
2024-03-12T05:48:23.939Z,100540.59
2024-03-12T05:50:53.187Z,100535.78
2024-03-12T05:53:23.012Z,100544.84
2024-03-12T05:55:51.871Z,100546.13
2024-03-12T05:58:20.828Z,100546.94
2024-03-12T06:00:50.384Z,100545.31
2024-03-12T06:03:19.397Z,100543.59
2024-03-12T06:05:47.969Z,100542.06
2024-03-12T06:08:17.414Z,100544.09
2024-03-12T06:10:46.235Z,100540.03
2024-03-12T06:13:15.195Z,100542.84
2024-03-12T06:15:44.187Z,100548.91
2024-03-12T06:18:14.151Z,100537.00
2024-03-12T06:20:54.648Z,100541.38
2024-03-12T06:23:25.015Z,100543.25
2024-03-12T06:26:06.035Z,100540.72
2024-03-12T06:28:35.029Z,100538.34
2024-03-12T06:31:06.023Z,100537.63
2024-03-12T06:33:40.136Z,100528.03
2024-03-12T06:36:09.835Z,100525.44
2024-03-12T06:38:38.468Z,100514.25
2024-03-12T06:41:09.367Z,100524.72
2024-03-12T06:43:42.640Z,100517.13
2024-03-12T06:46:13.950Z,100506.75
2024-03-12T06:48:43.205Z,100512.84
2024-03-12T06:51:12.638Z,100505.06
2024-03-12T06:53:41.914Z,100512.84
2024-03-12T06:56:13.277Z,100509.34
2024-03-12T06:58:46.762Z,100511.94
2024-03-12T07:01:16.007Z,100492.91
2024-03-12T07:03:45.120Z,100495.56
2024-03-12T07:06:14.268Z,100492.97
2024-03-12T07:08:45.123Z,100492.97
2024-03-12T07:11:27.834Z,100497.28
2024-03-12T07:14:04.220Z,100486.91
2024-03-12T07:16:34.222Z,100492.97
2024-03-12T07:19:03.052Z,100474.81
2024-03-12T07:21:31.734Z,100476.53
2024-03-12T07:24:00.736Z,100472.19
2024-03-12T07:26:30.363Z,100476.53
2024-03-12T07:28:59.035Z,100468.75
2024-03-12T07:31:27.763Z,100465.28
2024-03-12T07:33:58.821Z,100462.69
2024-03-12T07:36:39.880Z,100458.34
2024-03-12T07:39:11.156Z,100448.81
2024-03-12T07:41:41.065Z,100456.63
2024-03-12T07:44:10.373Z,100460.06
2024-03-12T07:46:39.166Z,100455.72
2024-03-12T07:49:12.389Z,100453.13
2024-03-12T07:51:41.399Z,100460.03
2024-03-12T07:54:10.103Z,100459.16
2024-03-12T07:56:38.972Z,100447.03
2024-03-12T07:59:09.642Z,100453.03
2024-03-12T08:01:38.286Z,100459.97
2024-03-12T08:04:07.173Z,100447.88
2024-03-12T08:06:37.129Z,100443.53
2024-03-12T08:09:05.991Z,100446.00
2024-03-12T08:11:35.873Z,100446.72
2024-03-12T08:14:08.872Z,100435.41
2024-03-12T08:16:40.609Z,100438.91
2024-03-12T08:19:12.322Z,100442.44
2024-03-12T08:21:41.372Z,100431.22
2024-03-12T08:24:12.654Z,100442.41
2024-03-12T08:26:41.453Z,100429.34
2024-03-12T08:29:10.075Z,100437.97
2024-03-12T08:31:47.453Z,100438.03
2024-03-12T08:34:20.503Z,100431.09
2024-03-12T08:36:52.092Z,100431.13
2024-03-12T08:39:21.092Z,100428.59
2024-03-12T08:41:49.861Z,100418.25
2024-03-12T08:44:18.476Z,100413.03
2024-03-12T08:46:47.202Z,100413.91
2024-03-12T08:49:16.143Z,100412.28
2024-03-12T08:51:44.925Z,100408.88
2024-03-12T08:54:15.982Z,100422.72
2024-03-12T08:56:44.811Z,100408.88
2024-03-12T08:59:17.646Z,100406.34
2024-03-12T09:01:46.555Z,100405.53
2024-03-12T09:04:15.566Z,100404.66
2024-03-12T09:06:44.545Z,100398.69
2024-03-12T09:09:17.747Z,100407.34
2024-03-12T09:11:48.385Z,100410.81
2024-03-12T09:14:17.128Z,100395.22
2024-03-12T09:16:46.347Z,100407.31
2024-03-12T09:19:15.229Z,100403.88
2024-03-12T09:21:44.189Z,100409.91
2024-03-12T09:24:12.807Z,100405.56
2024-03-12T09:26:41.648Z,100393.47
2024-03-12T09:29:10.374Z,100400.38
2024-03-12T09:31:40.908Z,100408.97
2024-03-12T09:34:11.501Z,100402.06
2024-03-12T09:36:41.708Z,100391.66
2024-03-12T09:39:12.730Z,100389.88
2024-03-12T09:41:54.063Z,100407.16
2024-03-12T09:44:50.313Z,100390.72
2024-03-12T09:47:19.652Z,100391.59
2024-03-12T09:49:53.382Z,100396.81
2024-03-12T09:52:22.256Z,100395.88
2024-03-12T09:54:51.256Z,100391.53
2024-03-12T09:57:20.521Z,100391.50
2024-03-12T09:59:49.726Z,100403.56
2024-03-12T10:02:18.373Z,100391.44
2024-03-12T10:04:49.301Z,100390.50
2024-03-12T10:07:21.518Z,100394.81
2024-03-12T10:09:51.400Z,100394.72
2024-03-12T10:12:23.531Z,100402.44
2024-03-12T10:14:54.122Z,100399.78
2024-03-12T10:17:22.866Z,100384.22
2024-03-12T10:19:52.590Z,100384.19
2024-03-12T10:22:28.391Z,100412.69
2024-03-12T10:25:10.895Z,100371.97
2024-03-12T10:30:28.482Z,100398.75
2024-03-12T10:32:57.715Z,100389.19
2024-03-12T10:35:27.201Z,100394.34
2024-03-12T10:37:56.624Z,100383.97
2024-03-12T10:40:28.114Z,100384.78
2024-03-12T10:43:03.671Z,100376.16
2024-03-12T10:45:32.544Z,100382.97
2024-03-12T10:48:08.056Z,100376.03
2024-03-12T10:50:39.433Z,100384.53
2024-03-12T10:53:23.695Z,100381.91
2024-03-12T10:55:52.678Z,100381.00
2024-03-12T10:58:24.085Z,100380.09
2024-03-12T11:00:53.614Z,100346.31
2024-03-12T11:03:25.272Z,100374.78
2024-03-12T11:05:56.168Z,100363.53
2024-03-12T11:08:25.846Z,100368.72
2024-03-12T11:10:55.350Z,100359.19
2024-03-12T11:13:24.710Z,100353.13
2024-03-12T11:15:59.137Z,100344.38
2024-03-12T11:18:36.490Z,100362.50
2024-03-12T11:21:06.637Z,100366.81
2024-03-12T11:23:38.733Z,100367.63
2024-03-12T11:26:08.995Z,100367.63
2024-03-12T11:28:52.322Z,100365.84
2024-03-12T11:31:21.656Z,100359.75
2024-03-12T11:33:53.996Z,100364.88
2024-03-12T11:36:24.109Z,100351.88
2024-03-12T11:38:54.701Z,100355.25
2024-03-12T11:41:23.620Z,100360.31
2024-03-12T11:43:52.558Z,100345.53
2024-03-12T11:46:44.260Z,100362.69
2024-03-12T11:49:34.529Z,100352.22
2024-03-12T11:52:03.691Z,100353.03
2024-03-12T11:54:44.959Z,100318.25
2024-03-12T11:57:26.762Z,100346.81
2024-03-12T11:59:58.330Z,100352.78
2024-03-12T12:02:28.441Z,100350.97
2024-03-12T12:04:58.256Z,100344.88
2024-03-12T12:07:29.759Z,100349.00
2024-03-12T12:09:58.615Z,100346.28
2024-03-12T12:12:29.222Z,100363.47
2024-03-12T12:14:58.597Z,100345.91
2024-03-12T12:17:27.992Z,100325.81
2024-03-12T12:20:16.895Z,100354.16
2024-03-12T12:22:50.362Z,100358.28
2024-03-12T12:25:20.642Z,100356.41
2024-03-12T12:27:49.428Z,100365.72
2024-03-12T12:30:22.649Z,100357.78
2024-03-12T12:32:53.785Z,100361.72
2024-03-12T12:35:24.814Z,100363.16
2024-03-12T12:37:54.488Z,100371.41
2024-03-12T12:40:23.462Z,100366.69
2024-03-12T12:42:55.538Z,100374.25
2024-03-12T12:45:26.185Z,100352.34
2024-03-12T12:47:56.226Z,100382.34
2024-03-12T12:50:29.742Z,100348.91
2024-03-12T12:53:02.757Z,100365.19
2024-03-12T12:55:32.387Z,100387.38
2024-03-12T12:58:03.551Z,100375.97
2024-03-12T13:00:42.169Z,100378.75
2024-03-12T13:03:18.754Z,100348.56
2024-03-12T13:05:52.910Z,100372.50
2024-03-12T13:08:26.812Z,100375.69
2024-03-12T13:11:06.999Z,100376.44
2024-03-12T13:13:37.279Z,100347.41
2024-03-12T13:16:17.321Z,100377.19
2024-03-12T13:18:54.481Z,100381.44
2024-03-12T13:21:26.954Z,100374.53
2024-03-12T13:23:56.271Z,100371.97
2024-03-12T13:26:25.476Z,100379.56
2024-03-12T13:28:57.618Z,100390.53
2024-03-12T13:31:27.195Z,100390.97
2024-03-12T13:33:56.475Z,100378.34
2024-03-12T13:36:37.478Z,100371.94
2024-03-12T13:39:08.371Z,100378.47
2024-03-12T13:41:37.926Z,100380.88
2024-03-12T13:44:06.890Z,100389.84
2024-03-12T13:46:42.253Z,100386.16
2024-03-12T13:49:15.694Z,100382.47
2024-03-12T13:51:47.538Z,100370.72
2024-03-12T13:54:17.091Z,100376.28
2024-03-12T13:56:47.050Z,100371.81
2024-03-12T13:59:19.331Z,100384.59
2024-03-12T14:01:51.391Z,100391.31
2024-03-12T14:04:20.051Z,100380.97
2024-03-12T14:06:49.425Z,100381.44
2024-03-12T14:09:19.195Z,100376.78
2024-03-12T14:11:48.384Z,100374.34
2024-03-12T14:14:17.277Z,100381.91
2024-03-12T14:16:46.205Z,100377.31
2024-03-12T14:19:15.102Z,100373.41
2024-03-12T14:21:43.818Z,100367.81
2024-03-12T14:24:12.744Z,100360.28
2024-03-12T14:26:41.884Z,100372.44
2024-03-12T14:29:12.408Z,100363.84
2024-03-12T14:31:43.207Z,100371.13
2024-03-12T14:34:12.745Z,100371.47
2024-03-12T14:36:41.959Z,100379.66
2024-03-12T14:39:14.250Z,100372.53
2024-03-12T14:41:43.627Z,100367.13
2024-03-12T14:44:13.352Z,100364.19
2024-03-12T14:46:42.835Z,100369.97
2024-03-12T14:49:12.126Z,100338.13
2024-03-12T14:51:43.603Z,100361.44
2024-03-12T14:54:12.724Z,100378.56
2024-03-12T14:56:42.125Z,100357.44
2024-03-12T14:59:11.173Z,100365.09
2024-03-12T15:01:41.722Z,100367.81
2024-03-12T15:04:10.883Z,100367.72
2024-03-12T15:06:42.376Z,100336.28
2024-03-12T15:09:15.584Z,100358.91
2024-03-12T15:11:45.085Z,100364.44
2024-03-12T15:14:14.186Z,100346.63
2024-03-12T15:16:43.958Z,100355.59
2024-03-12T15:19:13.918Z,100329.75
2024-03-12T15:21:42.982Z,100365.41
2024-03-12T15:24:13.264Z,100371.16
2024-03-12T15:26:42.606Z,100369.28
2024-03-12T15:29:11.704Z,100357.91
2024-03-12T15:31:41.707Z,100370.34
2024-03-12T15:34:10.750Z,100372.44
2024-03-12T15:36:40.764Z,100372.13
2024-03-12T15:39:11.506Z,100360.44
2024-03-12T15:41:40.529Z,100377.19
2024-03-12T15:44:09.550Z,100370.00
2024-03-12T15:46:38.969Z,100365.41
2024-03-12T15:49:08.166Z,100365.19
2024-03-12T15:51:38.638Z,100384.16
2024-03-12T15:54:11.164Z,100374.59
2024-03-12T15:56:46.195Z,100371.38
2024-03-12T15:59:28.166Z,100367.00
2024-03-12T16:01:57.213Z,100375.38
2024-03-12T16:04:27.021Z,100367.38
2024-03-12T16:06:55.943Z,100369.03
2024-03-12T16:09:25.055Z,100382.28
2024-03-12T16:11:55.648Z,100372.97
2024-03-12T16:14:24.305Z,100387.97
2024-03-12T16:16:53.107Z,100343.34
2024-03-12T16:19:23.897Z,100348.84
2024-03-12T16:21:53.775Z,100386.44
2024-03-12T16:24:22.909Z,100375.53
2024-03-12T16:26:54.468Z,100395.00
2024-03-12T16:29:25.489Z,100370.63
2024-03-12T16:31:54.980Z,100382.13
2024-03-12T16:34:27.342Z,100378.72
2024-03-12T16:36:56.291Z,100390.00
2024-03-12T16:39:26.006Z,100372.69
2024-03-12T16:41:58.221Z,100389.53
2024-03-12T16:44:27.526Z,100378.34
2024-03-12T16:46:56.175Z,100383.00
2024-03-12T16:49:24.924Z,100386.50
2024-03-12T16:51:54.950Z,100376.88
2024-03-12T16:54:23.912Z,100377.28
2024-03-12T16:56:55.481Z,100384.25
2024-03-12T16:59:25.377Z,100347.84
2024-03-12T17:01:54.347Z,100326.19
2024-03-12T17:04:35.155Z,100382.50
2024-03-12T17:07:10.965Z,100378.94
2024-03-12T17:09:43.542Z,100383.16
2024-03-12T17:12:14.461Z,100367.16
2024-03-12T17:14:43.470Z,100374.78
2024-03-12T17:17:15.914Z,100388.50
2024-03-12T17:19:45.537Z,100382.63
2024-03-12T17:22:15.066Z,100390.78
2024-03-12T17:24:44.397Z,100373.34
2024-03-12T17:27:16.004Z,100390.19
2024-03-12T17:29:58.931Z,100390.03
2024-03-12T17:32:28.504Z,100377.97
2024-03-12T17:34:59.575Z,100378.47
2024-03-12T17:37:36.143Z,100391.94
2024-03-12T17:40:15.990Z,100378.31
2024-03-12T17:42:46.677Z,100381.47
2024-03-12T17:45:17.465Z,100393.69
2024-03-12T17:47:52.309Z,100382.75
2024-03-12T17:50:23.589Z,100394.16
2024-03-12T17:52:54.144Z,100395.25
2024-03-12T17:55:23.756Z,100375.72
2024-03-12T17:57:54.560Z,100372.56
2024-03-12T18:00:24.294Z,100390.66
2024-03-12T18:02:53.886Z,100372.56
2024-03-12T18:05:23.723Z,100371.59
2024-03-12T18:08:06.797Z,100366.38
2024-03-12T18:10:37.447Z,100380.50
2024-03-12T18:13:06.628Z,100365.25
2024-03-12T18:15:36.941Z,100362.50
2024-03-12T18:18:06.802Z,100369.88
2024-03-12T18:20:37.865Z,100368.03
2024-03-12T18:23:06.749Z,100380.06
2024-03-12T18:25:37.285Z,100378.94
2024-03-12T18:28:06.477Z,100374.31
2024-03-12T18:30:35.844Z,100387.00
2024-03-12T18:33:06.287Z,100377.19
2024-03-12T18:35:35.206Z,100382.09
2024-03-12T18:38:05.291Z,100374.06
2024-03-12T18:40:34.015Z,100340.34
2024-03-12T18:43:05.218Z,100376.56
2024-03-12T18:45:33.848Z,100395.69
2024-03-12T18:48:05.927Z,100384.00
2024-03-12T18:50:35.337Z,100380.06
2024-03-12T18:53:07.744Z,100388.91
2024-03-12T18:55:37.305Z,100381.78
2024-03-12T18:58:06.663Z,100384.47
2024-03-12T19:00:37.109Z,100393.03
2024-03-12T19:03:16.752Z,100381.47
2024-03-12T19:05:53.981Z,100392.66
2024-03-12T19:08:23.204Z,100381.06
2024-03-12T19:10:52.322Z,100386.94
2024-03-12T19:13:22.551Z,100386.94
2024-03-12T19:15:51.617Z,100389.72
2024-03-12T19:18:24.763Z,100393.03
2024-03-12T19:20:54.974Z,100396.38
2024-03-12T19:23:25.772Z,100398.91
2024-03-12T19:25:56.788Z,100405.03
2024-03-12T19:28:25.838Z,100409.41
2024-03-12T19:30:55.466Z,100411.16
2024-03-12T19:33:24.912Z,100397.00
2024-03-12T19:35:55.613Z,100408.59
2024-03-12T19:38:25.446Z,100398.13
2024-03-12T19:40:55.715Z,100394.63
2024-03-12T19:43:26.734Z,100415.59
2024-03-12T19:46:00.667Z,100409.34
2024-03-12T19:48:30.505Z,100380.50
2024-03-12T19:50:59.352Z,100402.34
2024-03-12T19:53:28.467Z,100428.75
2024-03-12T19:55:58.039Z,100413.75
2024-03-12T19:58:30.363Z,100431.84
2024-03-12T20:01:01.807Z,100430.38
2024-03-12T20:03:30.617Z,100423.31
2024-03-12T20:06:00.298Z,100412.03
2024-03-12T20:08:28.992Z,100420.59
2024-03-12T20:10:58.139Z,100426.97
2024-03-12T20:13:28.036Z,100435.91
2024-03-12T20:15:56.982Z,100424.06
2024-03-12T20:18:29.990Z,100432.03
2024-03-12T20:20:58.555Z,100453.31
2024-03-12T20:23:28.286Z,100436.69
2024-03-12T20:25:56.993Z,100429.59
2024-03-12T20:28:25.950Z,100421.72
2024-03-12T20:30:54.940Z,100437.69
2024-03-12T20:33:26.062Z,100434.38
2024-03-12T20:35:55.929Z,100418.69
2024-03-12T20:38:25.719Z,100441.78
2024-03-12T20:40:54.909Z,100419.41
2024-03-12T20:43:23.610Z,100434.00
2024-03-12T20:45:52.950Z,100425.31
2024-03-12T20:48:33.972Z,100415.97
2024-03-12T20:51:05.311Z,100433.19
2024-03-12T20:53:35.776Z,100431.97
2024-03-12T20:56:06.174Z,100427.16
2024-03-12T20:58:34.972Z,100429.34
2024-03-12T21:01:04.707Z,100439.13
2024-03-12T21:03:35.780Z,100438.44
2024-03-12T21:06:16.736Z,100430.41
2024-03-12T21:08:47.821Z,100429.09
2024-03-12T21:11:17.183Z,100441.59
2024-03-12T21:13:58.237Z,100437.06
2024-03-12T21:16:27.275Z,100448.75
2024-03-12T21:18:55.900Z,100446.13
2024-03-12T21:21:24.637Z,100420.16
2024-03-12T21:23:54.185Z,100459.88
2024-03-12T21:26:25.494Z,100452.50
2024-03-12T21:28:54.506Z,100456.41
2024-03-12T21:31:23.868Z,100461.66
2024-03-12T21:33:53.438Z,100449.44
2024-03-12T21:36:22.244Z,100451.16
2024-03-12T21:38:51.151Z,100462.69
2024-03-12T21:41:21.108Z,100443.59
2024-03-12T21:43:50.728Z,100433.38
2024-03-12T21:46:22.861Z,100460.75
2024-03-12T21:48:52.397Z,100479.09
2024-03-12T21:51:21.371Z,100478.47
2024-03-12T21:53:50.661Z,100476.13
2024-03-12T21:56:19.365Z,100485.66
2024-03-12T21:58:52.827Z,100477.81
2024-03-12T22:01:22.354Z,100483.81
2024-03-12T22:03:52.234Z,100487.22
2024-03-12T22:06:22.149Z,100484.09
2024-03-12T22:08:56.349Z,100498.84
2024-03-12T22:11:25.340Z,100494.84
2024-03-12T22:13:54.230Z,100495.63
2024-03-12T22:16:23.167Z,100484.88
2024-03-12T22:18:51.927Z,100497.28
2024-03-12T22:21:26.018Z,100494.72
2024-03-12T22:23:55.429Z,100492.50
2024-03-12T22:26:24.705Z,100484.00
2024-03-12T22:28:56.520Z,100492.31
2024-03-12T22:31:25.424Z,100483.09
2024-03-12T22:33:55.497Z,100455.66
2024-03-12T22:36:25.431Z,100490.06
2024-03-12T22:38:55.553Z,100491.09
2024-03-12T22:41:24.688Z,100484.44
2024-03-12T22:43:53.925Z,100491.44
2024-03-12T22:46:23.848Z,100488.50
2024-03-12T22:48:53.124Z,100496.69
2024-03-12T22:51:22.267Z,100501.94
2024-03-12T22:53:51.363Z,100494.78
2024-03-12T22:56:21.258Z,100486.28
2024-03-12T22:58:51.090Z,100457.50
2024-03-12T23:01:20.863Z,100496.06
2024-03-12T23:03:50.518Z,100458.75
2024-03-12T23:06:19.921Z,100501.63
2024-03-12T23:08:50.287Z,100494.97
2024-03-12T23:11:20.957Z,100506.41
2024-03-12T23:13:52.950Z,100489.09
2024-03-12T23:16:21.587Z,100513.50
2024-03-12T23:18:54.915Z,100495.59
2024-03-12T23:21:23.706Z,100510.63
2024-03-12T23:23:55.219Z,100505.31
2024-03-12T23:26:25.385Z,100494.59
2024-03-12T23:28:55.130Z,100500.00
2024-03-12T23:31:24.034Z,100507.34
2024-03-12T23:33:54.908Z,100502.22
2024-03-12T23:36:29.353Z,100498.31
2024-03-12T23:38:58.686Z,100489.31
2024-03-12T23:41:27.552Z,100465.91
2024-03-12T23:43:56.889Z,100501.13
2024-03-12T23:46:26.569Z,100485.75
2024-03-12T23:48:56.246Z,100507.72
2024-03-12T23:51:25.107Z,100497.47
2024-03-12T23:53:53.846Z,100496.97
2024-03-12T23:56:22.971Z,100485.03
2024-03-12T23:58:52.036Z,100512.84
